sim
Sign-in with your pilot id or email,
or register
Callsign
Passwort

Schedule Details

Flight Number: OEF9007
Departure: Kolkata International Airport (VECC) at 10:20
Arrival: Mumbai Chhatrapati Shivaji International Airport (VABB) at 12:50

Weather Information
Getting current METAR information for VECC 191730Z 17005KT 3800 HZ FEW020 28/26 Q1005 NOSIG
Getting current METAR information for VABB 191730Z 24007KT 3500 HZ SCT020 28/25 Q1010 NOSIG

Schedule Frequency

Route Map